Time;durP1;ratioP1;P1;durP2;ratioP2;P2;SDS_P1;SDS_P2;PMS_P1;PMS_P2;Temp;Humidity;BMP_temperature;BMP_pressure;BME280_temperature;BME280_humidity;BME280_pressure;Samples;Min_cycle;Max_cycle;Signal;HPM_P1;HPM_P2
2023/03/02 00:01:51;;;;;;;1.50;0.70;;;3.90;99.90;;;;;;4958547;28;20130;-81
2023/03/02 00:04:30;;;;;;;2.50;0.77;;;3.90;99.90;;;;;;4952872;28;20713;-81
2023/03/02 00:07:00;;;;;;;1.52;1.33;;;3.90;99.90;;;;;;4951151;28;20580;-82
2023/03/02 00:09:28;;;;;;;0.43;0.20;;;3.90;99.90;;;;;;4953587;28;20051;-81
2023/03/02 00:11:55;;;;;;;1.67;1.00;;;3.90;99.90;;;;;;4958163;28;20142;-82
2023/03/02 00:14:22;;;;;;;1.23;0.60;;;3.90;99.90;;;;;;4961793;28;20484;-82
2023/03/02 00:16:49;;;;;;;1.23;0.68;;;3.80;99.90;;;;;;4959630;28;20073;-81
2023/03/02 00:19:16;;;;;;;3.58;0.75;;;3.90;99.90;;;;;;4963832;28;20070;-82
2023/03/02 00:21:43;;;;;;;2.50;0.50;;;3.90;99.90;;;;;;4954527;28;20500;-82
2023/03/02 00:24:11;;;;;;;5.35;1.00;;;3.90;99.90;;;;;;4959418;28;20171;-81
2023/03/02 00:26:38;;;;;;;2.35;0.70;;;3.90;99.90;;;;;;4955117;28;20402;-82
2023/03/02 00:29:04;;;;;;;4.50;1.45;;;3.90;99.90;;;;;;4958684;28;20067;-83
2023/03/02 00:31:32;;;;;;;1.23;0.80;;;3.80;99.90;;;;;;4955979;28;20413;-83
2023/03/02 00:33:59;;;;;;;1.30;0.60;;;3.90;99.90;;;;;;4964001;28;20153;-82
2023/03/02 00:36:26;;;;;;;5.72;1.17;;;3.90;99.90;;;;;;4957897;28;20055;-82
2023/03/02 00:38:53;;;;;;;2.97;0.85;;;3.80;99.90;;;;;;4955992;28;20059;-82
2023/03/02 00:41:20;;;;;;;3.97;1.23;;;3.80;99.90;;;;;;4955912;28;20480;-82
2023/03/02 00:43:48;;;;;;;1.45;0.85;;;3.90;99.90;;;;;;4960682;28;20051;-82
2023/03/02 00:46:19;;;;;;;1.38;0.75;;;3.80;99.90;;;;;;4959236;28;20067;-82
2023/03/02 00:48:46;;;;;;;;;;;3.80;99.90;;;;;;4956522;28;20050;-81
2023/03/02 00:51:13;;;;;;;1.75;0.80;;;3.80;99.90;;;;;;4956311;28;20008;-82
2023/03/02 00:53:40;;;;;;;1.70;0.93;;;3.80;99.90;;;;;;4957642;28;20149;-81
2023/03/02 00:56:08;;;;;;;1.40;0.60;;;3.90;99.90;;;;;;4952981;28;20727;-82
2023/03/02 00:58:39;;;;;;;3.10;0.75;;;3.90;99.90;;;;;;4962521;28;20106;-82
2023/03/02 01:01:10;;;;;;;0.98;0.65;;;3.90;99.90;;;;;;4955195;28;20588;-82
2023/03/02 01:03:40;;;;;;;1.77;0.93;;;3.90;99.90;;;;;;4948307;28;20133;-81
2023/03/02 01:06:17;;;;;;;4.72;0.80;;;3.90;99.90;;;;;;4963328;28;20573;-81
2023/03/02 01:08:44;;;;;;;2.42;1.25;;;3.90;99.90;;;;;;4961427;28;20041;-81
2023/03/02 01:11:21;;;;;;;1.63;0.40;;;3.90;99.90;;;;;;4954758;28;20047;-82
2023/03/02 01:13:50;;;;;;;4.05;0.98;;;3.90;99.90;;;;;;4958340;28;20094;-81
2023/03/02 01:16:17;;;;;;;1.38;0.65;;;3.90;99.90;;;;;;4950992;28;20072;-81
2023/03/02 01:18:44;;;;;;;1.27;1.15;;;3.90;99.90;;;;;;4954970;28;20128;-81
2023/03/02 01:21:14;;;;;;;2.17;0.60;;;3.90;99.90;;;;;;4954979;28;20046;-81
2023/03/02 01:23:41;;;;;;;1.33;0.75;;;3.80;99.90;;;;;;4940476;28;20047;-82
2023/03/02 01:26:08;;;;;;;4.68;1.27;;;3.90;99.90;;;;;;4942616;28;20043;-82
2023/03/02 01:28:35;;;;;;;1.70;0.55;;;3.90;99.90;;;;;;4945031;28;20632;-82
2023/03/02 01:31:03;;;;;;;1.50;1.00;;;3.90;99.90;;;;;;4954808;28;20065;-81
2023/03/02 01:33:31;;;;;;;3.08;0.90;;;3.80;99.90;;;;;;4953492;28;21315;-81
2023/03/02 01:35:58;;;;;;;3.22;1.00;;;3.80;99.90;;;;;;4967024;28;20067;-82
2023/03/02 01:38:25;;;;;;;4.13;0.80;;;3.80;99.90;;;;;;4958819;28;20055;-81
2023/03/02 01:40:52;;;;;;;3.33;0.70;;;3.80;99.90;;;;;;4959030;28;20035;-80
2023/03/02 01:43:19;;;;;;;1.27;0.70;;;3.80;99.90;;;;;;4949488;28;20576;-80
2023/03/02 01:46:04;;;;;;;2.00;1.27;;;3.80;99.90;;;;;;4961293;28;20054;-81
2023/03/02 01:49:01;;;;;;;1.95;0.50;;;3.70;99.90;;;;;;4974789;28;20042;-81
2023/03/02 01:51:42;;;;;;;3.20;0.82;;;3.70;99.90;;;;;;4970451;28;20096;-80
2023/03/02 01:54:21;;;;;;;2.28;0.98;;;3.70;99.90;;;;;;4959480;28;20740;-80
2023/03/02 01:56:58;;;;;;;7.53;1.05;;;3.70;99.90;;;;;;4956200;28;20717;-80
2023/03/02 01:59:28;;;;;;;3.50;1.10;;;3.60;99.90;;;;;;4954865;28;20055;-81
2023/03/02 02:01:57;;;;;;;1.65;0.55;;;3.60;99.90;;;;;;4951319;28;20130;-83
2023/03/02 02:04:27;;;;;;;2.95;0.55;;;3.60;99.90;;;;;;4958512;28;20057;-82
2023/03/02 02:06:58;;;;;;;2.50;1.00;;;3.60;99.90;;;;;;4958821;28;20074;-82
2023/03/02 02:09:29;;;;;;;1.70;1.27;;;3.60;99.90;;;;;;4954540;28;20072;-83
2023/03/02 02:11:56;;;;;;;0.80;0.40;;;3.60;99.90;;;;;;4948405;28;20039;-83
2023/03/02 02:14:23;;;;;;;2.40;1.13;;;3.50;99.90;;;;;;4966681;28;20047;-83
2023/03/02 02:16:51;;;;;;;4.65;1.58;;;3.50;99.90;;;;;;4947556;28;20502;-83
2023/03/02 02:19:53;;;;;;;1.63;0.73;;;3.50;99.90;;;;;;4936196;28;20066;-82
2023/03/02 02:22:38;;;;;;;4.35;1.33;;;3.60;99.90;;;;;;4949877;28;20137;-82
2023/03/02 02:25:14;;;;;;;1.65;0.73;;;3.60;99.90;;;;;;4955374;28;20181;-83
2023/03/02 02:27:42;;;;;;;3.88;1.38;;;3.50;99.90;;;;;;4945659;28;20447;-83
2023/03/02 02:30:12;;;;;;;2.30;1.00;;;3.50;99.90;;;;;;4964581;28;20243;-83
2023/03/02 02:32:40;;;;;;;1.90;0.80;;;3.50;99.90;;;;;;4950402;28;20547;-83
2023/03/02 02:35:18;;;;;;;1.08;0.73;;;3.50;99.90;;;;;;4960531;28;20138;-83
2023/03/02 02:37:54;;;;;;;1.48;0.93;;;3.50;99.90;;;;;;4952879;28;20134;-83
2023/03/02 02:40:38;;;;;;;1.23;0.88;;;3.50;99.90;;;;;;4957064;28;20074;-83
2023/03/02 02:43:08;;;;;;;0.52;0.50;;;3.50;99.90;;;;;;4960645;28;20463;-83
2023/03/02 02:45:35;;;;;;;2.63;0.80;;;3.50;99.90;;;;;;4955477;28;20055;-83
2023/03/02 02:48:02;;;;;;;2.60;0.60;;;3.40;99.90;;;;;;4960711;28;20051;-83
2023/03/02 02:50:34;;;;;;;0.90;0.70;;;3.40;99.90;;;;;;4958020;28;20043;-82
2023/03/02 02:53:10;;;;;;;1.80;0.70;;;3.40;99.90;;;;;;4954055;28;20054;-83
2023/03/02 02:55:40;;;;;;;2.00;1.13;;;3.40;99.90;;;;;;4962422;28;20051;-82
2023/03/02 02:58:32;;;;;;;3.30;1.10;;;3.40;99.90;;;;;;4957955;28;20661;-82
2023/03/02 03:01:00;;;;;;;5.55;1.13;;;3.40;99.90;;;;;;4956645;28;20575;-83
2023/03/02 03:03:31;;;;;;;4.13;0.77;;;3.40;99.90;;;;;;4948029;28;20054;-83
2023/03/02 03:06:04;;;;;;;3.75;1.15;;;3.40;99.90;;;;;;4970650;28;20154;-83
2023/03/02 03:08:40;;;;;;;2.40;0.88;;;3.40;99.90;;;;;;4951611;28;20051;-82
2023/03/02 03:11:15;;;;;;;2.30;0.93;;;3.40;99.90;;;;;;4959546;28;20070;-83
2023/03/02 03:13:43;;;;;;;4.88;0.90;;;3.40;99.90;;;;;;4951933;28;20039;-83
2023/03/02 03:16:14;;;;;;;3.42;1.02;;;3.40;99.90;;;;;;4953189;28;20228;-82
2023/03/02 03:18:50;;;;;;;0.93;0.68;;;3.40;99.90;;;;;;4955817;28;20210;-83
2023/03/02 03:21:17;;;;;;;0.88;0.57;;;3.30;99.90;;;;;;4955916;28;20089;-83
2023/03/02 03:23:44;;;;;;;1.65;0.82;;;3.30;99.90;;;;;;4950361;28;20548;-83
2023/03/02 03:26:11;;;;;;;4.15;1.17;;;3.30;99.90;;;;;;4939890;28;20043;-82
2023/03/02 03:28:38;;;;;;;2.90;1.65;;;3.30;99.90;;;;;;4956083;28;20039;-83
2023/03/02 03:31:06;;;;;;;2.58;1.10;;;3.30;99.90;;;;;;4947604;28;20051;-83
2023/03/02 03:33:33;;;;;;;2.45;1.00;;;3.20;99.90;;;;;;4940344;28;20051;-81
2023/03/02 03:36:00;;;;;;;2.28;1.92;;;3.20;99.90;;;;;;4955535;28;20526;-81
2023/03/02 03:38:28;;;;;;;2.60;1.58;;;3.20;99.90;;;;;;4951936;28;20051;-81
2023/03/02 03:40:55;;;;;;;4.05;0.85;;;3.20;99.90;;;;;;4957301;28;20055;-82
2023/03/02 03:43:22;;;;;;;2.05;1.00;;;3.30;99.90;;;;;;4951927;28;20090;-82
2023/03/02 03:45:52;;;;;;;5.97;1.88;;;3.30;99.90;;;;;;4957360;28;20043;-83
2023/03/02 03:48:19;;;;;;;2.17;1.08;;;3.20;99.90;;;;;;4953794;28;20129;-83
2023/03/02 03:50:47;;;;;;;4.22;1.30;;;3.20;99.90;;;;;;4961763;28;20039;-82
2023/03/02 03:53:14;;;;;;;2.55;1.15;;;3.20;99.90;;;;;;4950549;28;20349;-82
2023/03/02 03:55:41;;;;;;;4.80;1.50;;;3.20;99.90;;;;;;4954543;28;20472;-82
2023/03/02 03:58:08;;;;;;;4.20;0.98;;;3.20;99.90;;;;;;4959733;28;20061;-82
2023/03/02 04:00:35;;;;;;;3.55;1.40;;;3.10;99.90;;;;;;4957897;28;20465;-82
2023/03/02 04:03:07;;;;;;;6.13;1.08;;;3.10;99.90;;;;;;4953472;28;20415;-82
2023/03/02 04:05:34;;;;;;;2.47;1.10;;;3.00;99.90;;;;;;4953826;28;20160;-83
2023/03/02 04:08:02;;;;;;;4.15;1.00;;;3.00;99.90;;;;;;4943776;28;20050;-82
2023/03/02 04:10:30;;;;;;;2.42;0.70;;;3.00;99.90;;;;;;4956139;28;20111;-83
2023/03/02 04:12:57;;;;;;;3.80;1.10;;;3.00;99.90;;;;;;4955295;28;20130;-83
2023/03/02 04:15:24;;;;;;;2.15;0.98;;;3.00;99.90;;;;;;4953644;28;20105;-83
2023/03/02 04:17:52;;;;;;;3.10;0.90;;;3.00;99.90;;;;;;4952014;28;20536;-82
2023/03/02 04:20:23;;;;;;;3.03;1.10;;;3.00;99.90;;;;;;4958370;28;20138;-83
2023/03/02 04:22:53;;;;;;;1.73;0.75;;;3.00;99.90;;;;;;4952156;28;20114;-83
2023/03/02 04:25:24;;;;;;;3.55;1.27;;;2.90;99.90;;;;;;4952121;28;20121;-81
2023/03/02 04:27:54;;;;;;;3.70;0.85;;;2.90;99.90;;;;;;4953451;28;20043;-83
2023/03/02 04:30:25;;;;;;;3.00;1.23;;;2.80;99.90;;;;;;4942352;28;20464;-83
2023/03/02 04:32:52;;;;;;;2.97;1.08;;;2.80;99.90;;;;;;4955198;28;20346;-83
2023/03/02 04:35:20;;;;;;;3.10;1.15;;;2.80;99.90;;;;;;4957928;28;20063;-83
2023/03/02 04:37:47;;;;;;;4.68;1.10;;;2.80;99.90;;;;;;4953068;28;20425;-83
2023/03/02 04:40:16;;;;;;;3.40;0.95;;;2.80;99.90;;;;;;4940242;28;20130;-82
2023/03/02 04:42:43;;;;;;;1.98;0.95;;;2.80;99.90;;;;;;4951510;28;20089;-83
2023/03/02 04:45:11;;;;;;;1.98;1.00;;;2.80;99.90;;;;;;4958531;28;20042;-82
2023/03/02 04:47:38;;;;;;;4.38;0.68;;;2.80;99.90;;;;;;4951270;28;20034;-82
2023/03/02 04:50:06;;;;;;;3.25;1.00;;;2.80;99.90;;;;;;4959594;28;20463;-82
2023/03/02 04:52:33;;;;;;;1.25;0.73;;;2.90;99.90;;;;;;4950584;28;20051;-82
2023/03/02 04:55:00;;;;;;;3.55;1.20;;;2.90;99.90;;;;;;4958336;28;20744;-83
2023/03/02 04:57:27;;;;;;;2.75;0.77;;;2.90;99.90;;;;;;4955726;28;20055;-84
2023/03/02 04:59:54;;;;;;;5.68;1.25;;;2.90;99.90;;;;;;4954907;28;20100;-82
2023/03/02 05:02:21;;;;;;;2.60;0.98;;;2.90;99.90;;;;;;4952374;28;20055;-82
2023/03/02 05:04:48;;;;;;;2.53;1.90;;;2.90;99.90;;;;;;4952010;28;20097;-83
2023/03/02 05:07:15;;;;;;;1.98;0.80;;;2.90;99.90;;;;;;4952324;28;20106;-82
2023/03/02 05:09:42;;;;;;;3.75;1.65;;;2.90;99.90;;;;;;4954181;28;20087;-83
2023/03/02 05:12:09;;;;;;;1.48;0.88;;;2.90;99.90;;;;;;4954545;28;20046;-82
2023/03/02 05:14:36;;;;;;;2.03;1.13;;;2.90;99.90;;;;;;4970375;28;20047;-83
2023/03/02 05:17:03;;;;;;;2.33;1.02;;;2.90;99.90;;;;;;4961130;28;20151;-83
2023/03/02 05:19:30;;;;;;;1.92;1.00;;;2.80;99.90;;;;;;4938790;28;20069;-82
2023/03/02 05:21:57;;;;;;;3.55;1.13;;;2.80;99.90;;;;;;4954196;28;20051;-83
2023/03/02 05:24:24;;;;;;;3.13;0.80;;;2.70;99.90;;;;;;4947686;28;20115;-83
2023/03/02 05:26:50;;;;;;;1.40;0.70;;;2.60;99.90;;;;;;4960093;28;20473;-83
2023/03/02 05:29:17;;;;;;;5.10;1.25;;;2.50;99.90;;;;;;4956000;28;20063;-83
2023/03/02 05:31:45;;;;;;;2.97;0.88;;;2.40;99.90;;;;;;4955897;28;20054;-83
2023/03/02 05:34:15;;;;;;;4.85;1.05;;;2.40;99.90;;;;;;4954485;28;20841;-83
2023/03/02 05:36:43;;;;;;;4.28;2.03;;;2.30;99.90;;;;;;4939170;28;20054;-82
2023/03/02 05:39:11;;;;;;;2.42;0.85;;;2.20;99.90;;;;;;4950813;28;20046;-83
2023/03/02 05:41:39;;;;;;;3.85;0.93;;;2.10;99.90;;;;;;4957200;28;20049;-82
2023/03/02 05:44:08;;;;;;;2.20;1.50;;;2.10;99.90;;;;;;4957605;28;20142;-81
2023/03/02 05:46:36;;;;;;;1.20;0.60;;;2.10;99.90;;;;;;4960100;28;20098;-83
2023/03/02 05:49:03;;;;;;;2.45;1.00;;;2.00;99.90;;;;;;4955129;28;20428;-82
2023/03/02 05:51:30;;;;;;;5.80;1.45;;;1.90;99.90;;;;;;4959602;28;20055;-82
2023/03/02 05:53:57;;;;;;;3.45;1.05;;;1.90;99.90;;;;;;4933032;28;20504;-82
2023/03/02 05:56:24;;;;;;;3.90;0.65;;;2.00;99.90;;;;;;4952328;28;20102;-83
2023/03/02 05:58:51;;;;;;;5.93;1.88;;;2.00;99.90;;;;;;4953908;28;20431;-83
2023/03/02 06:01:18;;;;;;;3.50;2.55;;;2.00;99.90;;;;;;4941283;28;20044;-83
2023/03/02 06:03:45;;;;;;;5.65;1.13;;;1.90;99.90;;;;;;4952882;28;20046;-83
2023/03/02 06:06:12;;;;;;;6.07;1.00;;;2.00;99.90;;;;;;4954766;28;20098;-82
2023/03/02 06:08:41;;;;;;;5.18;0.90;;;2.00;99.90;;;;;;4955118;28;20935;-82
2023/03/02 06:11:08;;;;;;;4.20;1.23;;;2.00;99.90;;;;;;4962664;28;20242;-83
2023/03/02 06:13:35;;;;;;;3.47;0.88;;;2.10;99.90;;;;;;4958347;28;20055;-83
2023/03/02 06:16:03;;;;;;;1.38;0.90;;;2.10;99.90;;;;;;4962400;28;20058;-82
2023/03/02 06:18:30;;;;;;;1.35;0.70;;;2.20;99.90;;;;;;4958330;28;20421;-83
2023/03/02 06:20:57;;;;;;;2.17;0.90;;;2.20;99.90;;;;;;4959182;28;20529;-82
2023/03/02 06:23:24;;;;;;;3.38;1.90;;;2.20;99.90;;;;;;4955422;28;20426;-83
2023/03/02 06:25:51;;;;;;;2.42;0.60;;;2.20;99.90;;;;;;4963693;28;20134;-82
2023/03/02 06:28:19;;;;;;;7.90;1.27;;;2.20;99.90;;;;;;4955283;28;20047;-83
2023/03/02 06:30:51;;;;;;;2.72;1.33;;;2.10;99.90;;;;;;4964382;28;20452;-83
2023/03/02 06:33:20;;;;;;;9.77;2.13;;;2.10;99.90;;;;;;4955107;28;20062;-83
2023/03/02 06:35:47;;;;;;;5.47;1.40;;;2.00;99.90;;;;;;4959821;28;20047;-83
2023/03/02 06:38:14;;;;;;;3.17;0.65;;;2.10;99.90;;;;;;4959852;28;20046;-83
2023/03/02 06:40:42;;;;;;;4.70;1.23;;;2.10;99.90;;;;;;4960820;28;20096;-83
2023/03/02 06:43:09;;;;;;;3.90;0.95;;;2.20;99.90;;;;;;4954098;28;20055;-83
2023/03/02 06:45:36;;;;;;;3.22;1.45;;;2.30;99.90;;;;;;4935111;28;20050;-82
2023/03/02 06:48:03;;;;;;;2.97;1.48;;;2.40;99.90;;;;;;4957436;28;20055;-82
2023/03/02 06:50:31;;;;;;;1.05;0.70;;;2.60;99.90;;;;;;4952164;28;20055;-83
2023/03/02 06:52:58;;;;;;;3.03;1.02;;;2.60;99.90;;;;;;4954574;28;20393;-82
2023/03/02 06:55:25;;;;;;;4.53;1.45;;;2.70;99.90;;;;;;4956586;28;20047;-83
2023/03/02 06:57:52;;;;;;;4.97;1.00;;;2.70;99.90;;;;;;4949375;28;20067;-83
2023/03/02 07:00:24;;;;;;;3.08;1.30;;;2.70;99.90;;;;;;4958406;28;20516;-83
2023/03/02 07:02:53;;;;;;;4.78;0.90;;;2.80;99.90;;;;;;4955069;28;20162;-83
2023/03/02 07:05:20;;;;;;;2.15;0.70;;;2.80;99.90;;;;;;4960591;28;20154;-83
2023/03/02 07:07:47;;;;;;;2.45;0.93;;;2.90;99.90;;;;;;4945653;28;20083;-82
2023/03/02 07:10:14;;;;;;;3.90;1.20;;;2.90;99.90;;;;;;4957751;28;20070;-83
2023/03/02 07:12:41;;;;;;;3.55;0.82;;;2.90;99.90;;;;;;4954137;28;20047;-83
2023/03/02 07:15:13;;;;;;;2.25;0.90;;;3.00;99.90;;;;;;4955046;28;20054;-83
2023/03/02 07:17:42;;;;;;;2.40;0.82;;;3.00;99.90;;;;;;4951669;28;20606;-83
2023/03/02 07:20:11;;;;;;;2.10;0.57;;;3.00;99.90;;;;;;4952816;28;20051;-82
2023/03/02 07:22:38;;;;;;;2.97;0.77;;;3.00;99.90;;;;;;4962804;28;20106;-84
2023/03/02 07:25:06;;;;;;;2.70;0.77;;;3.10;99.90;;;;;;4955045;28;20130;-82
2023/03/02 07:27:33;;;;;;;3.03;0.57;;;3.10;99.90;;;;;;4963864;28;20477;-83
2023/03/02 07:30:00;;;;;;;4.35;0.73;;;3.10;99.90;;;;;;4947992;28;20126;-82
2023/03/02 07:32:27;;;;;;;3.42;0.52;;;3.10;99.90;;;;;;4960305;28;20082;-82
2023/03/02 07:34:54;;;;;;;1.13;1.00;;;3.10;99.90;;;;;;4952979;28;20145;-84
2023/03/02 07:37:21;;;;;;;5.82;0.73;;;3.20;99.90;;;;;;4956752;28;20106;-83
2023/03/02 07:39:48;;;;;;;2.22;1.02;;;3.20;99.90;;;;;;4954506;28;20051;-83
2023/03/02 07:42:16;;;;;;;1.98;1.10;;;3.20;99.90;;;;;;4955733;28;20397;-82
2023/03/02 07:44:46;;;;;;;1.35;0.60;;;3.20;99.90;;;;;;4955508;28;20098;-83
2023/03/02 07:47:13;;;;;;;2.50;0.68;;;3.30;99.90;;;;;;4963216;28;20145;-83
2023/03/02 07:49:40;;;;;;;3.28;0.88;;;3.30;99.90;;;;;;4954099;28;20205;-83
2023/03/02 07:52:07;;;;;;;1.50;0.90;;;3.30;99.90;;;;;;4959286;28;20839;-83
2023/03/02 07:54:34;;;;;;;7.50;0.90;;;3.30;99.90;;;;;;4958701;28;20134;-83
2023/03/02 07:57:00;;;;;;;2.42;0.82;;;3.30;99.90;;;;;;4963177;28;20047;-82
2023/03/02 07:59:28;;;;;;;3.90;0.88;;;3.40;99.90;;;;;;4953165;28;20059;-83
2023/03/02 08:01:56;;;;;;;1.40;1.08;;;3.40;99.90;;;;;;4970668;28;20140;-83
2023/03/02 08:04:23;;;;;;;1.83;0.95;;;3.40;99.90;;;;;;4955018;28;20062;-82
2023/03/02 08:06:51;;;;;;;5.10;0.95;;;3.40;99.90;;;;;;4958694;28;20093;-82
2023/03/02 08:09:18;;;;;;;2.65;0.77;;;3.40;99.90;;;;;;4970082;28;20079;-83
2023/03/02 08:11:46;;;;;;;1.35;0.63;;;3.40;99.90;;;;;;4957289;28;20098;-82
2023/03/02 08:14:13;;;;;;;2.22;0.43;;;3.40;99.90;;;;;;4952339;28;20149;-82
2023/03/02 08:16:40;;;;;;;2.30;0.57;;;3.40;99.90;;;;;;4956619;28;20110;-82
2023/03/02 08:19:07;;;;;;;1.08;0.45;;;3.40;99.90;;;;;;4952609;28;20580;-82
2023/03/02 08:21:34;;;;;;;1.27;0.80;;;3.50;99.90;;;;;;4938550;28;20130;-83
2023/03/02 08:24:02;;;;;;;5.70;1.08;;;3.50;99.90;;;;;;4945390;28;20070;-83
2023/03/02 08:26:29;;;;;;;1.70;0.57;;;3.60;99.90;;;;;;4955561;28;20055;-83
2023/03/02 08:28:57;;;;;;;14.57;1.85;;;3.50;99.90;;;;;;4959580;28;20050;-82
2023/03/02 08:31:24;;;;;;;4.45;0.85;;;3.60;99.90;;;;;;4956307;28;20089;-82
2023/03/02 08:33:51;;;;;;;0.50;0.43;;;3.50;99.90;;;;;;4945946;28;20043;-82
2023/03/02 08:36:19;;;;;;;16.73;1.70;;;3.60;99.90;;;;;;4955483;28;20042;-83
2023/03/02 08:38:47;;;;;;;2.22;0.73;;;3.60;99.90;;;;;;4953339;28;20039;-82
2023/03/02 08:41:18;;;;;;;7.53;2.35;;;3.70;99.90;;;;;;4954641;28;20105;-83
2023/03/02 08:43:46;;;;;;;5.75;1.23;;;3.60;99.90;;;;;;4952427;28;20146;-83
2023/03/02 08:46:16;;;;;;;6.30;1.55;;;3.60;99.90;;;;;;4953732;28;20141;-83
2023/03/02 08:48:43;;;;;;;3.40;0.40;;;3.70;99.90;;;;;;4951248;28;20054;-83
2023/03/02 08:51:20;;;;;;;9.57;1.90;;;3.70;99.90;;;;;;4954548;28;20511;-82
2023/03/02 08:53:49;;;;;;;4.88;1.30;;;3.70;99.90;;;;;;4956065;28;20046;-83
2023/03/02 08:56:22;;;;;;;2.80;0.55;;;3.70;99.90;;;;;;4938338;28;20047;-82
2023/03/02 08:58:50;;;;;;;1.80;0.80;;;3.80;99.90;;;;;;4952584;28;20071;-82
2023/03/02 09:01:22;;;;;;;6.03;1.02;;;3.80;99.90;;;;;;4954767;28;20051;-82
2023/03/02 09:03:50;;;;;;;2.88;0.40;;;3.80;99.90;;;;;;4947679;28;20553;-83
2023/03/02 09:06:17;;;;;;;2.15;0.50;;;3.80;99.90;;;;;;4954581;28;20458;-83
2023/03/02 09:08:44;;;;;;;1.55;0.35;;;3.80;99.90;;;;;;4955468;28;20516;-83
2023/03/02 09:11:11;;;;;;;6.07;0.70;;;3.90;99.90;;;;;;4955441;28;20046;-83
2023/03/02 09:13:38;;;;;;;1.15;0.55;;;3.90;99.90;;;;;;4953108;28;20106;-83
2023/03/02 09:16:07;;;;;;;9.05;1.90;;;4.00;99.90;;;;;;4955258;28;20129;-82
2023/03/02 09:18:35;;;;;;;3.97;0.90;;;4.00;99.90;;;;;;4965438;28;20134;-82
2023/03/02 09:21:02;;;;;;;1.67;1.02;;;4.00;99.90;;;;;;4955315;28;20046;-82
2023/03/02 09:23:31;;;;;;;2.05;0.68;;;4.10;99.90;;;;;;4955052;28;20495;-82
2023/03/02 09:25:58;;;;;;;3.15;0.80;;;4.10;99.90;;;;;;4954299;28;20042;-82
2023/03/02 09:28:25;;;;;;;7.68;3.17;;;4.00;99.90;;;;;;4957986;28;20075;-82
2023/03/02 09:31:01;;;;;;;2.92;0.85;;;4.00;99.90;;;;;;4960070;28;20047;-83
2023/03/02 09:33:29;;;;;;;8.48;1.00;;;3.90;99.90;;;;;;4957354;28;20043;-82
2023/03/02 09:35:56;;;;;;;5.25;0.55;;;3.80;99.90;;;;;;4954159;28;20043;-83
2023/03/02 09:38:23;;;;;;;9.70;1.23;;;3.90;99.90;;;;;;4953754;28;20300;-82
2023/03/02 09:40:56;;;;;;;3.47;0.93;;;3.90;99.90;;;;;;4953464;28;20721;-83
2023/03/02 09:43:30;;;;;;;3.60;0.85;;;3.90;99.90;;;;;;4957376;28;20050;-82
2023/03/02 09:46:33;;;;;;;5.35;1.02;;;4.00;99.90;;;;;;4953087;28;20043;-83
2023/03/02 09:49:24;;;;;;;7.60;1.08;;;4.00;99.90;;;;;;4959255;28;20584;-81
2023/03/02 09:52:11;;;;;;;9.13;1.52;;;4.00;99.90;;;;;;4958859;28;20047;-82
2023/03/02 09:54:38;;;;;;;1.75;0.63;;;4.00;99.90;;;;;;4957649;28;20044;-82
2023/03/02 09:57:22;;;;;;;4.57;0.60;;;4.00;99.90;;;;;;4957143;28;20043;-82
2023/03/02 10:00:14;;;;;;;11.40;1.40;;;4.00;99.90;;;;;;4957059;28;20141;-82
2023/03/02 10:02:52;;;;;;;6.38;2.15;;;4.10;99.90;;;;;;4968246;28;20442;-82
2023/03/02 10:05:29;;;;;;;3.47;0.70;;;4.10;99.90;;;;;;4958489;28;20121;-84
2023/03/02 10:07:56;;;;;;;7.72;1.02;;;4.20;99.90;;;;;;4959768;28;20129;-83
2023/03/02 10:10:34;;;;;;;17.48;3.28;;;4.30;99.90;;;;;;4957200;28;20386;-83
2023/03/02 10:13:01;;;;;;;7.65;1.63;;;4.30;99.90;;;;;;4959006;28;20420;-83
2023/03/02 10:15:54;;;;;;;2.50;0.55;;;4.20;99.90;;;;;;4954722;28;20047;-83
2023/03/02 10:18:40;;;;;;;9.05;1.08;;;4.30;99.90;;;;;;4959012;28;20067;-84
2023/03/02 10:21:20;;;;;;;2.15;0.50;;;4.40;99.90;;;;;;4958083;28;20141;-85
2023/03/02 10:23:53;;;;;;;;;;;4.30;99.90;;;;;;4948789;28;20053;-82
2023/03/02 10:26:30;;;;;;;5.93;1.70;;;4.30;99.90;;;;;;4940928;28;20415;-83
2023/03/02 10:29:17;;;;;;;3.67;1.27;;;4.40;99.90;;;;;;4959155;28;20464;-83
2023/03/02 10:31:45;;;;;;;7.45;1.27;;;4.40;99.90;;;;;;4960238;28;20511;-83
2023/03/02 10:34:13;;;;;;;4.70;0.80;;;4.40;99.90;;;;;;4964224;28;20043;-84
2023/03/02 10:36:43;;;;;;;4.60;1.02;;;4.50;99.90;;;;;;4949118;28;20480;-83
2023/03/02 10:39:15;;;;;;;21.35;2.50;;;4.40;99.90;;;;;;4955221;28;20047;-83
2023/03/02 10:41:48;;;;;;;6.97;1.67;;;4.50;99.90;;;;;;4958376;28;20046;-82
2023/03/02 10:44:20;;;;;;;3.42;1.02;;;4.60;99.90;;;;;;4955495;28;20070;-83
2023/03/02 10:46:47;;;;;;;5.10;0.50;;;4.50;99.90;;;;;;4947131;28;20393;-82
2023/03/02 10:49:29;;;;;;;12.18;2.45;;;4.60;99.90;;;;;;4940372;28;20111;-82
2023/03/02 10:51:56;;;;;;;14.60;2.22;;;4.80;99.90;;;;;;4954851;28;20053;-83
2023/03/02 10:54:24;;;;;;;6.93;1.23;;;4.80;99.90;;;;;;4951897;28;20086;-82
2023/03/02 10:56:55;;;;;;;16.00;2.58;;;4.70;99.90;;;;;;4955101;28;20078;-82
2023/03/02 10:59:44;;;;;;;25.15;2.63;;;4.80;99.90;;;;;;4956967;28;20393;-82
2023/03/02 11:02:23;;;;;;;5.47;1.17;;;4.80;99.90;;;;;;4959174;28;20050;-82
2023/03/02 11:04:56;;;;;;;14.90;2.53;;;4.80;99.90;;;;;;4953515;28;20043;-82
2023/03/02 11:07:28;;;;;;;16.08;2.30;;;4.80;99.90;;;;;;4952427;28;20953;-82
2023/03/02 11:10:02;;;;;;;6.15;0.98;;;4.80;99.90;;;;;;4969147;28;20504;-84
2023/03/02 11:12:31;;;;;;;5.18;1.08;;;4.70;99.90;;;;;;4958358;28;20635;-84
2023/03/02 11:15:24;;;;;;;5.72;0.80;;;4.70;99.90;;;;;;4956798;28;20507;-83
2023/03/02 11:18:33;;;;;;;15.77;1.50;;;4.80;99.90;;;;;;4922190;28;1142661;-83
2023/03/02 11:21:05;;;;;;;3.10;0.60;;;4.80;99.90;;;;;;4960911;28;20448;-83
2023/03/02 11:23:47;;;;;;;9.75;1.67;;;4.80;99.90;;;;;;4955690;28;20047;-83
2023/03/02 11:26:24;;;;;;;9.77;1.63;;;4.90;99.90;;;;;;4964473;28;20175;-83
2023/03/02 11:29:03;;;;;;;4.70;1.52;;;4.70;99.90;;;;;;4964043;28;20039;-83
2023/03/02 11:32:04;;;;;;;4.95;0.88;;;4.70;99.90;;;;;;4958614;28;20132;-83
2023/03/02 11:34:45;;;;;;;15.45;3.35;;;4.80;99.90;;;;;;4952696;28;20051;-82
2023/03/02 11:37:22;;;;;;;4.55;1.15;;;4.80;99.90;;;;;;4954139;28;20485;-83
2023/03/02 11:40:00;;;;;;;5.93;1.30;;;4.80;99.90;;;;;;4971171;28;20505;-84
2023/03/02 11:42:37;;;;;;;5.22;0.80;;;4.80;99.90;;;;;;4956802;28;20101;-84
2023/03/02 11:45:16;;;;;;;12.02;1.40;;;4.80;99.90;;;;;;4955380;28;20520;-83
2023/03/02 11:48:07;;;;;;;11.52;1.77;;;4.70;99.90;;;;;;4963542;28;20482;-83
2023/03/02 11:50:49;;;;;;;7.75;1.63;;;4.70;99.90;;;;;;4958368;28;20101;-82
2023/03/02 11:53:18;;;;;;;11.32;1.65;;;4.70;99.90;;;;;;4942537;28;20070;-82
2023/03/02 11:55:48;;;;;;;12.77;1.80;;;4.80;99.90;;;;;;4957706;28;20050;-82
2023/03/02 11:58:27;;;;;;;13.68;1.00;;;4.70;99.90;;;;;;4953399;28;20082;-82
2023/03/02 12:00:54;;;;;;;4.68;1.50;;;4.80;99.90;;;;;;4961224;28;20556;-82
2023/03/02 12:03:30;;;;;;;2.65;0.77;;;4.80;99.90;;;;;;4953458;28;20554;-82
2023/03/02 12:06:01;;;;;;;7.82;1.65;;;4.80;99.90;;;;;;4956511;28;20135;-82
2023/03/02 12:08:42;;;;;;;2.22;1.15;;;4.90;99.90;;;;;;4956077;28;20125;-82
2023/03/02 12:11:17;;;;;;;2.72;1.23;;;5.00;99.90;;;;;;4953557;28;20078;-82
2023/03/02 12:13:53;;;;;;;7.53;0.77;;;5.00;99.90;;;;;;4953676;28;20409;-82
2023/03/02 12:16:42;;;;;;;1.75;0.80;;;5.10;99.90;;;;;;4943729;28;20833;-83
2023/03/02 12:19:27;;;;;;;12.48;2.10;;;5.00;99.90;;;;;;4955285;28;20142;-83
2023/03/02 12:22:05;;;;;;;4.70;1.20;;;4.90;99.90;;;;;;4955783;28;20373;-82
2023/03/02 12:24:35;;;;;;;4.68;0.85;;;4.90;99.90;;;;;;4956385;28;20058;-82
2023/03/02 12:27:25;;;;;;;5.18;1.42;;;4.90;99.90;;;;;;4958867;28;20047;-82
2023/03/02 12:30:17;;;;;;;5.45;1.10;;;4.90;99.90;;;;;;4951544;28;20077;-82
2023/03/02 12:32:57;;;;;;;12.98;1.95;;;5.00;99.90;;;;;;4958414;28;20043;-82
2023/03/02 12:35:25;;;;;;;4.68;1.00;;;5.00;99.90;;;;;;4957264;28;20066;-82
2023/03/02 12:38:22;;;;;;;6.63;1.05;;;5.00;99.90;;;;;;4958379;28;20073;-82
2023/03/02 12:41:20;;;;;;;7.95;0.93;;;4.90;99.90;;;;;;4956419;28;20061;-82
2023/03/02 12:44:45;;;;;;;2.75;0.68;;;5.00;99.90;;;;;;4954860;28;20043;-82
2023/03/02 12:47:20;;;;;;;7.93;2.03;;;5.00;99.90;;;;;;4947724;28;20042;-82
2023/03/02 12:49:53;;;;;;;7.30;1.17;;;4.90;99.90;;;;;;4955751;28;20039;-84
2023/03/02 12:52:26;;;;;;;3.60;1.27;;;5.00;99.90;;;;;;4961893;28;20110;-82
2023/03/02 12:55:26;;;;;;;5.28;1.48;;;5.00;99.90;;;;;;4961440;28;20300;-82
2023/03/02 12:57:56;;;;;;;5.53;1.00;;;5.00;99.90;;;;;;4963852;28;20035;-83
2023/03/02 13:00:29;;;;;;;19.73;2.70;;;5.00;99.90;;;;;;4955893;28;20054;-82
2023/03/02 13:02:57;;;;;;;10.18;1.63;;;5.00;99.90;;;;;;4956099;28;20058;-83
2023/03/02 13:05:30;;;;;;;7.05;0.52;;;5.10;99.90;;;;;;4955866;28;20051;-82
2023/03/02 13:08:03;;;;;;;2.15;0.70;;;5.10;99.90;;;;;;4959072;28;20055;-82
2023/03/02 13:10:39;;;;;;;5.32;1.13;;;5.00;99.90;;;;;;4956476;28;20046;-82
2023/03/02 13:13:20;;;;;;;10.68;1.13;;;4.90;99.90;;;;;;4948887;28;20590;-82
2023/03/02 13:15:59;;;;;;;7.22;1.25;;;5.00;99.90;;;;;;4944327;28;20055;-82
2023/03/02 13:18:31;;;;;;;9.18;2.65;;;5.00;99.90;;;;;;4960364;28;20070;-82
2023/03/02 13:21:00;;;;;;;17.92;3.42;;;5.10;99.90;;;;;;4951218;28;20142;-82